sensor_id;sensor_type;location;lat;lon;timestamp;temperature;humidity
22682;DHT22;11508;50.856;4.380;2023-03-01T00:01:08;3.20;93.20
22682;DHT22;11508;50.856;4.380;2023-03-01T00:03:34;3.20;93.20
22682;DHT22;11508;50.856;4.380;2023-03-01T00:06:01;3.10;93.40
22682;DHT22;11508;50.856;4.380;2023-03-01T00:08:27;2.80;93.80
22682;DHT22;11508;50.856;4.380;2023-03-01T00:11:06;2.80;94.30
22682;DHT22;11508;50.856;4.380;2023-03-01T00:13:32;2.90;94.30
22682;DHT22;11508;50.856;4.380;2023-03-01T00:15:58;2.90;94.10
22682;DHT22;11508;50.856;4.380;2023-03-01T00:18:24;2.70;94.40
22682;DHT22;11508;50.856;4.380;2023-03-01T00:20:54;2.70;94.60
22682;DHT22;11508;50.856;4.380;2023-03-01T00:23:20;2.90;94.60
22682;DHT22;11508;50.856;4.380;2023-03-01T00:25:47;2.90;94.70
22682;DHT22;11508;50.856;4.380;2023-03-01T00:28:12;2.80;94.60
22682;DHT22;11508;50.856;4.380;2023-03-01T00:30:40;2.70;94.90
22682;DHT22;11508;50.856;4.380;2023-03-01T00:33:06;3.10;94.70
22682;DHT22;11508;50.856;4.380;2023-03-01T00:35:35;3.20;94.20
22682;DHT22;11508;50.856;4.380;2023-03-01T00:38:01;2.90;94.60
22682;DHT22;11508;50.856;4.380;2023-03-01T00:40:28;2.90;94.60
22682;DHT22;11508;50.856;4.380;2023-03-01T00:42:55;2.70;94.80
22682;DHT22;11508;50.856;4.380;2023-03-01T00:45:21;2.60;95.20
22682;DHT22;11508;50.856;4.380;2023-03-01T00:47:48;2.60;95.30
22682;DHT22;11508;50.856;4.380;2023-03-01T00:50:14;2.60;95.50
22682;DHT22;11508;50.856;4.380;2023-03-01T00:52:40;2.50;95.70
22682;DHT22;11508;50.856;4.380;2023-03-01T00:55:06;2.50;95.90
22682;DHT22;11508;50.856;4.380;2023-03-01T00:57:32;2.70;95.80
22682;DHT22;11508;50.856;4.380;2023-03-01T00:59:59;2.80;95.40
22682;DHT22;11508;50.856;4.380;2023-03-01T01:02:24;2.80;95.70
22682;DHT22;11508;50.856;4.380;2023-03-01T01:04:51;2.90;95.40
22682;DHT22;11508;50.856;4.380;2023-03-01T01:07:17;2.90;95.20
22682;DHT22;11508;50.856;4.380;2023-03-01T01:09:43;3.00;95.30
22682;DHT22;11508;50.856;4.380;2023-03-01T01:12:09;2.80;95.30
22682;DHT22;11508;50.856;4.380;2023-03-01T01:14:35;2.80;95.50
22682;DHT22;11508;50.856;4.380;2023-03-01T01:17:01;2.80;95.60
22682;DHT22;11508;50.856;4.380;2023-03-01T01:19:27;2.80;95.70
22682;DHT22;11508;50.856;4.380;2023-03-01T01:21:52;3.00;95.40
22682;DHT22;11508;50.856;4.380;2023-03-01T01:24:19;3.10;95.20
22682;DHT22;11508;50.856;4.380;2023-03-01T01:26:45;2.90;95.40
22682;DHT22;11508;50.856;4.380;2023-03-01T01:29:11;2.70;95.70
22682;DHT22;11508;50.856;4.380;2023-03-01T01:31:39;2.60;96.20
22682;DHT22;11508;50.856;4.380;2023-03-01T01:34:07;2.50;96.60
22682;DHT22;11508;50.856;4.380;2023-03-01T01:36:33;2.50;96.40
22682;DHT22;11508;50.856;4.380;2023-03-01T01:38:59;2.70;96.30
22682;DHT22;11508;50.856;4.380;2023-03-01T01:41:27;2.50;96.60
22682;DHT22;11508;50.856;4.380;2023-03-01T01:44:17;2.40;96.80
22682;DHT22;11508;50.856;4.380;2023-03-01T01:46:52;2.60;96.70
22682;DHT22;11508;50.856;4.380;2023-03-01T01:49:24;2.60;96.70
22682;DHT22;11508;50.856;4.380;2023-03-01T01:51:57;2.60;96.80
22682;DHT22;11508;50.856;4.380;2023-03-01T01:54:32;2.60;96.90
22682;DHT22;11508;50.856;4.380;2023-03-01T01:57:03;2.30;97.00
22682;DHT22;11508;50.856;4.380;2023-03-01T01:59:32;2.40;97.50
22682;DHT22;11508;50.856;4.380;2023-03-01T02:02:00;2.70;97.00
22682;DHT22;11508;50.856;4.380;2023-03-01T02:04:28;2.70;96.90
22682;DHT22;11508;50.856;4.380;2023-03-01T02:06:59;2.60;96.80
22682;DHT22;11508;50.856;4.380;2023-03-01T02:09:27;2.40;97.00
22682;DHT22;11508;50.856;4.380;2023-03-01T02:11:53;2.10;97.90
22682;DHT22;11508;50.856;4.380;2023-03-01T02:14:19;2.20;97.80
22682;DHT22;11508;50.856;4.380;2023-03-01T02:16:45;2.20;98.10
22682;DHT22;11508;50.856;4.380;2023-03-01T02:19:44;2.10;98.00
22682;DHT22;11508;50.856;4.380;2023-03-01T02:22:33;2.10;98.30
22682;DHT22;11508;50.856;4.380;2023-03-01T02:28:02;2.10;98.60
22682;DHT22;11508;50.856;4.380;2023-03-01T02:30:29;2.10;98.80
22682;DHT22;11508;50.856;4.380;2023-03-01T02:32:57;2.20;98.70
22682;DHT22;11508;50.856;4.380;2023-03-01T02:35:30;2.20;98.40
22682;DHT22;11508;50.856;4.380;2023-03-01T02:37:57;2.40;98.50
22682;DHT22;11508;50.856;4.380;2023-03-01T02:40:28;2.20;98.50
22682;DHT22;11508;50.856;4.380;2023-03-01T02:42:56;2.30;98.40
22682;DHT22;11508;50.856;4.380;2023-03-01T02:45:23;2.20;98.20
22682;DHT22;11508;50.856;4.380;2023-03-01T02:47:49;2.30;98.70
22682;DHT22;11508;50.856;4.380;2023-03-01T02:53:11;2.20;98.60
22682;DHT22;11508;50.856;4.380;2023-03-01T02:55:38;2.20;98.60
22682;DHT22;11508;50.856;4.380;2023-03-01T02:58:04;2.10;98.90
22682;DHT22;11508;50.856;4.380;2023-03-01T03:00:37;2.00;99.00
22682;DHT22;11508;50.856;4.380;2023-03-01T03:03:18;1.90;99.40
22682;DHT22;11508;50.856;4.380;2023-03-01T03:05:44;1.70;99.80
22682;DHT22;11508;50.856;4.380;2023-03-01T03:08:10;1.70;99.90
22682;DHT22;11508;50.856;4.380;2023-03-01T03:10:38;1.70;99.90
22682;DHT22;11508;50.856;4.380;2023-03-01T03:13:13;1.80;99.90
22682;DHT22;11508;50.856;4.380;2023-03-01T03:15:40;1.70;99.90
22682;DHT22;11508;50.856;4.380;2023-03-01T03:18:09;1.60;99.90
22682;DHT22;11508;50.856;4.380;2023-03-01T03:20:36;1.80;99.90
22682;DHT22;11508;50.856;4.380;2023-03-01T03:23:02;1.70;99.90
22682;DHT22;11508;50.856;4.380;2023-03-01T03:25:28;1.80;99.90
22682;DHT22;11508;50.856;4.380;2023-03-01T03:27:55;1.90;99.90
22682;DHT22;11508;50.856;4.380;2023-03-01T03:30:28;1.70;99.90
22682;DHT22;11508;50.856;4.380;2023-03-01T03:32:55;1.60;99.90
22682;DHT22;11508;50.856;4.380;2023-03-01T03:37:53;1.90;99.90
22682;DHT22;11508;50.856;4.380;2023-03-01T03:40:36;1.90;99.90
22682;DHT22;11508;50.856;4.380;2023-03-01T03:43:04;1.80;99.90
22682;DHT22;11508;50.856;4.380;2023-03-01T03:45:30;1.80;99.90
22682;DHT22;11508;50.856;4.380;2023-03-01T03:47:59;1.70;99.90
22682;DHT22;11508;50.856;4.380;2023-03-01T03:50:25;1.70;99.90
22682;DHT22;11508;50.856;4.380;2023-03-01T03:52:51;1.50;99.90
22682;DHT22;11508;50.856;4.380;2023-03-01T03:55:16;1.70;99.90
22682;DHT22;11508;50.856;4.380;2023-03-01T03:57:45;1.90;99.90
22682;DHT22;11508;50.856;4.380;2023-03-01T04:00:18;1.90;99.90
22682;DHT22;11508;50.856;4.380;2023-03-01T04:02:45;1.80;99.90
22682;DHT22;11508;50.856;4.380;2023-03-01T04:05:13;1.60;99.90
22682;DHT22;11508;50.856;4.380;2023-03-01T04:07:40;1.50;99.90
22682;DHT22;11508;50.856;4.380;2023-03-01T04:10:20;1.50;99.90
22682;DHT22;11508;50.856;4.380;2023-03-01T04:12:45;1.30;99.90
22682;DHT22;11508;50.856;4.380;2023-03-01T04:15:12;1.30;99.90
22682;DHT22;11508;50.856;4.380;2023-03-01T04:17:41;1.40;99.90
22682;DHT22;11508;50.856;4.380;2023-03-01T04:20:09;1.50;99.90
22682;DHT22;11508;50.856;4.380;2023-03-01T04:22:37;1.50;99.90
22682;DHT22;11508;50.856;4.380;2023-03-01T04:25:02;1.60;99.90
22682;DHT22;11508;50.856;4.380;2023-03-01T04:27:30;1.50;99.90
22682;DHT22;11508;50.856;4.380;2023-03-01T04:29:55;1.50;99.90
22682;DHT22;11508;50.856;4.380;2023-03-01T04:32:21;1.50;99.90
22682;DHT22;11508;50.856;4.380;2023-03-01T04:34:47;1.30;99.90
22682;DHT22;11508;50.856;4.380;2023-03-01T04:37:12;1.20;99.90
22682;DHT22;11508;50.856;4.380;2023-03-01T04:39:38;1.20;99.90
22682;DHT22;11508;50.856;4.380;2023-03-01T04:42:11;1.20;99.90
22682;DHT22;11508;50.856;4.380;2023-03-01T04:44:37;1.20;99.90
22682;DHT22;11508;50.856;4.380;2023-03-01T04:47:02;1.20;99.90
22682;DHT22;11508;50.856;4.380;2023-03-01T04:49:28;1.00;99.90
22682;DHT22;11508;50.856;4.380;2023-03-01T04:51:54;1.10;99.90
22682;DHT22;11508;50.856;4.380;2023-03-01T04:54:19;1.30;99.90
22682;DHT22;11508;50.856;4.380;2023-03-01T04:56:45;1.20;99.90
22682;DHT22;11508;50.856;4.380;2023-03-01T04:59:11;1.30;99.90
22682;DHT22;11508;50.856;4.380;2023-03-01T05:01:38;1.40;99.90
22682;DHT22;11508;50.856;4.380;2023-03-01T05:04:04;1.30;99.90
22682;DHT22;11508;50.856;4.380;2023-03-01T05:06:31;1.00;99.90
22682;DHT22;11508;50.856;4.380;2023-03-01T05:08:58;0.90;99.90
22682;DHT22;11508;50.856;4.380;2023-03-01T05:11:23;0.80;99.90
22682;DHT22;11508;50.856;4.380;2023-03-01T05:13:49;0.90;99.90
22682;DHT22;11508;50.856;4.380;2023-03-01T05:16:20;1.00;99.90
22682;DHT22;11508;50.856;4.380;2023-03-01T05:18:45;0.80;99.90
22682;DHT22;11508;50.856;4.380;2023-03-01T05:21:13;0.80;99.90
22682;DHT22;11508;50.856;4.380;2023-03-01T05:23:41;0.80;99.90
22682;DHT22;11508;50.856;4.380;2023-03-01T05:26:07;1.00;99.90
22682;DHT22;11508;50.856;4.380;2023-03-01T05:28:34;1.00;99.90
22682;DHT22;11508;50.856;4.380;2023-03-01T05:31:00;0.80;99.90
22682;DHT22;11508;50.856;4.380;2023-03-01T05:33:26;0.90;99.90
22682;DHT22;11508;50.856;4.380;2023-03-01T05:35:52;0.90;99.90
22682;DHT22;11508;50.856;4.380;2023-03-01T05:38:20;0.80;99.90
22682;DHT22;11508;50.856;4.380;2023-03-01T05:40:48;0.60;99.90
22682;DHT22;11508;50.856;4.380;2023-03-01T05:43:15;0.70;99.90
22682;DHT22;11508;50.856;4.380;2023-03-01T05:45:42;0.70;99.90
22682;DHT22;11508;50.856;4.380;2023-03-01T05:48:08;1.00;99.90
22682;DHT22;11508;50.856;4.380;2023-03-01T05:50:40;1.00;99.90
22682;DHT22;11508;50.856;4.380;2023-03-01T05:53:09;0.90;99.90
22682;DHT22;11508;50.856;4.380;2023-03-01T05:55:36;0.90;99.90
22682;DHT22;11508;50.856;4.380;2023-03-01T05:58:04;0.90;99.90
22682;DHT22;11508;50.856;4.380;2023-03-01T06:00:30;1.00;99.90
22682;DHT22;11508;50.856;4.380;2023-03-01T06:02:57;1.10;99.90
22682;DHT22;11508;50.856;4.380;2023-03-01T06:05:24;0.90;99.90
22682;DHT22;11508;50.856;4.380;2023-03-01T06:07:49;0.70;99.90
22682;DHT22;11508;50.856;4.380;2023-03-01T06:10:17;0.80;99.90
22682;DHT22;11508;50.856;4.380;2023-03-01T06:12:43;0.60;99.90
22682;DHT22;11508;50.856;4.380;2023-03-01T06:15:11;0.80;99.90
22682;DHT22;11508;50.856;4.380;2023-03-01T06:17:38;0.70;99.90
22682;DHT22;11508;50.856;4.380;2023-03-01T06:20:05;0.70;99.90
22682;DHT22;11508;50.856;4.380;2023-03-01T06:22:33;0.60;99.90
22682;DHT22;11508;50.856;4.380;2023-03-01T06:24:58;0.60;99.90
22682;DHT22;11508;50.856;4.380;2023-03-01T06:27:24;0.60;99.90
22682;DHT22;11508;50.856;4.380;2023-03-01T06:29:50;0.50;99.90
22682;DHT22;11508;50.856;4.380;2023-03-01T06:32:15;0.70;99.90
22682;DHT22;11508;50.856;4.380;2023-03-01T06:34:41;0.90;99.90
22682;DHT22;11508;50.856;4.380;2023-03-01T06:37:07;0.90;99.90
22682;DHT22;11508;50.856;4.380;2023-03-01T06:39:33;0.70;99.90
22682;DHT22;11508;50.856;4.380;2023-03-01T06:41:59;0.70;99.90
22682;DHT22;11508;50.856;4.380;2023-03-01T06:44:25;0.70;99.90
22682;DHT22;11508;50.856;4.380;2023-03-01T06:46:51;0.90;99.90
22682;DHT22;11508;50.856;4.380;2023-03-01T06:49:17;0.90;99.90
22682;DHT22;11508;50.856;4.380;2023-03-01T06:51:44;0.80;99.90
22682;DHT22;11508;50.856;4.380;2023-03-01T06:54:10;0.70;99.90
22682;DHT22;11508;50.856;4.380;2023-03-01T06:56:36;0.80;99.90
22682;DHT22;11508;50.856;4.380;2023-03-01T06:59:02;0.80;99.90
22682;DHT22;11508;50.856;4.380;2023-03-01T07:01:30;1.00;99.90
22682;DHT22;11508;50.856;4.380;2023-03-01T07:03:56;1.20;99.90
22682;DHT22;11508;50.856;4.380;2023-03-01T07:06:21;1.00;99.90
22682;DHT22;11508;50.856;4.380;2023-03-01T07:08:47;1.30;99.90
22682;DHT22;11508;50.856;4.380;2023-03-01T07:11:15;1.20;99.90
22682;DHT22;11508;50.856;4.380;2023-03-01T07:13:41;1.20;99.90
22682;DHT22;11508;50.856;4.380;2023-03-01T07:16:08;1.20;99.90
22682;DHT22;11508;50.856;4.380;2023-03-01T07:18:34;1.20;99.90
22682;DHT22;11508;50.856;4.380;2023-03-01T07:21:05;1.10;99.90
22682;DHT22;11508;50.856;4.380;2023-03-01T07:23:31;1.10;99.90
22682;DHT22;11508;50.856;4.380;2023-03-01T07:25:57;1.10;99.90
22682;DHT22;11508;50.856;4.380;2023-03-01T07:28:23;1.00;99.90
22682;DHT22;11508;50.856;4.380;2023-03-01T07:30:49;1.20;99.90
22682;DHT22;11508;50.856;4.380;2023-03-01T07:33:14;1.10;99.90
22682;DHT22;11508;50.856;4.380;2023-03-01T07:35:40;1.20;99.90
22682;DHT22;11508;50.856;4.380;2023-03-01T07:38:06;1.20;99.90
22682;DHT22;11508;50.856;4.380;2023-03-01T07:40:31;1.10;99.90
22682;DHT22;11508;50.856;4.380;2023-03-01T07:42:58;1.10;99.90
22682;DHT22;11508;50.856;4.380;2023-03-01T07:45:24;1.10;99.90
22682;DHT22;11508;50.856;4.380;2023-03-01T07:47:51;1.30;99.90
22682;DHT22;11508;50.856;4.380;2023-03-01T07:50:18;1.70;99.90
22682;DHT22;11508;50.856;4.380;2023-03-01T07:52:47;1.30;99.90
22682;DHT22;11508;50.856;4.380;2023-03-01T07:55:13;1.30;99.90
22682;DHT22;11508;50.856;4.380;2023-03-01T07:57:41;1.20;99.90
22682;DHT22;11508;50.856;4.380;2023-03-01T08:00:08;1.20;99.90
22682;DHT22;11508;50.856;4.380;2023-03-01T08:02:35;1.10;99.90
22682;DHT22;11508;50.856;4.380;2023-03-01T08:05:01;1.10;99.90
22682;DHT22;11508;50.856;4.380;2023-03-01T08:07:26;1.30;99.90
22682;DHT22;11508;50.856;4.380;2023-03-01T08:09:52;1.50;99.90
22682;DHT22;11508;50.856;4.380;2023-03-01T08:12:18;1.50;99.90
22682;DHT22;11508;50.856;4.380;2023-03-01T08:14:43;1.60;99.90
22682;DHT22;11508;50.856;4.380;2023-03-01T08:17:09;1.60;99.90
22682;DHT22;11508;50.856;4.380;2023-03-01T08:19:34;1.60;99.90
22682;DHT22;11508;50.856;4.380;2023-03-01T08:22:03;1.60;99.90
22682;DHT22;11508;50.856;4.380;2023-03-01T08:24:29;1.50;99.90
22682;DHT22;11508;50.856;4.380;2023-03-01T08:26:55;1.70;99.90
22682;DHT22;11508;50.856;4.380;2023-03-01T08:29:21;1.70;99.90
22682;DHT22;11508;50.856;4.380;2023-03-01T08:31:47;1.70;99.90
22682;DHT22;11508;50.856;4.380;2023-03-01T08:34:15;1.90;99.90
22682;DHT22;11508;50.856;4.380;2023-03-01T08:36:43;2.00;99.90
22682;DHT22;11508;50.856;4.380;2023-03-01T08:39:11;2.20;99.90
22682;DHT22;11508;50.856;4.380;2023-03-01T08:41:37;2.30;99.90
22682;DHT22;11508;50.856;4.380;2023-03-01T08:44:03;2.30;99.90
22682;DHT22;11508;50.856;4.380;2023-03-01T08:46:35;2.40;99.90
22682;DHT22;11508;50.856;4.380;2023-03-01T08:49:05;2.40;99.90
22682;DHT22;11508;50.856;4.380;2023-03-01T08:51:31;2.50;99.90
22682;DHT22;11508;50.856;4.380;2023-03-01T08:54:02;2.50;99.90
22682;DHT22;11508;50.856;4.380;2023-03-01T08:56:28;2.60;99.90
22682;DHT22;11508;50.856;4.380;2023-03-01T08:58:54;2.40;99.90
22682;DHT22;11508;50.856;4.380;2023-03-01T09:01:21;2.40;99.90
22682;DHT22;11508;50.856;4.380;2023-03-01T09:03:47;2.60;99.90
22682;DHT22;11508;50.856;4.380;2023-03-01T09:06:13;2.70;99.90
22682;DHT22;11508;50.856;4.380;2023-03-01T09:08:41;2.80;99.90
22682;DHT22;11508;50.856;4.380;2023-03-01T09:11:12;2.80;99.90
22682;DHT22;11508;50.856;4.380;2023-03-01T09:13:39;3.00;99.90
22682;DHT22;11508;50.856;4.380;2023-03-01T09:16:06;3.30;99.90
22682;DHT22;11508;50.856;4.380;2023-03-01T09:18:33;3.30;99.90
22682;DHT22;11508;50.856;4.380;2023-03-01T09:21:04;3.20;99.90
22682;DHT22;11508;50.856;4.380;2023-03-01T09:23:34;3.00;99.90
22682;DHT22;11508;50.856;4.380;2023-03-01T09:26:02;3.10;99.90
22682;DHT22;11508;50.856;4.380;2023-03-01T09:28:28;3.10;99.90
22682;DHT22;11508;50.856;4.380;2023-03-01T09:30:57;3.20;99.90
22682;DHT22;11508;50.856;4.380;2023-03-01T09:33:22;3.20;99.90
22682;DHT22;11508;50.856;4.380;2023-03-01T09:35:48;3.20;99.90
22682;DHT22;11508;50.856;4.380;2023-03-01T09:38:14;3.10;99.90
22682;DHT22;11508;50.856;4.380;2023-03-01T09:40:43;3.00;99.90
22682;DHT22;11508;50.856;4.380;2023-03-01T09:45:49;3.10;99.90
22682;DHT22;11508;50.856;4.380;2023-03-01T09:48:22;3.20;99.90
22682;DHT22;11508;50.856;4.380;2023-03-01T09:50:49;3.10;99.90
22682;DHT22;11508;50.856;4.380;2023-03-01T09:53:18;3.40;99.90
22682;DHT22;11508;50.856;4.380;2023-03-01T09:55:55;3.50;99.90
22682;DHT22;11508;50.856;4.380;2023-03-01T09:58:34;3.60;99.90
22682;DHT22;11508;50.856;4.380;2023-03-01T10:06:51;3.80;99.90
22682;DHT22;11508;50.856;4.380;2023-03-01T10:09:21;3.80;99.90
22682;DHT22;11508;50.856;4.380;2023-03-01T10:11:52;3.80;99.90
22682;DHT22;11508;50.856;4.380;2023-03-01T10:20:20;4.10;99.90
22682;DHT22;11508;50.856;4.380;2023-03-01T10:22:46;4.10;99.90
22682;DHT22;11508;50.856;4.380;2023-03-01T10:25:20;4.10;99.90
22682;DHT22;11508;50.856;4.380;2023-03-01T10:27:55;4.30;99.90
22682;DHT22;11508;50.856;4.380;2023-03-01T10:30:40;4.30;99.90
22682;DHT22;11508;50.856;4.380;2023-03-01T10:33:29;4.30;99.90
22682;DHT22;11508;50.856;4.380;2023-03-01T10:35:56;4.20;99.90
22682;DHT22;11508;50.856;4.380;2023-03-01T10:38:22;4.10;99.90
22682;DHT22;11508;50.856;4.380;2023-03-01T10:40:55;4.20;99.90
22682;DHT22;11508;50.856;4.380;2023-03-01T10:43:27;4.40;99.90
22682;DHT22;11508;50.856;4.380;2023-03-01T10:45:55;4.50;99.90
22682;DHT22;11508;50.856;4.380;2023-03-01T10:48:23;4.60;99.90
22682;DHT22;11508;50.856;4.380;2023-03-01T10:51:14;4.60;99.90
22682;DHT22;11508;50.856;4.380;2023-03-01T10:53:47;4.70;99.80
22682;DHT22;11508;50.856;4.380;2023-03-01T10:56:15;4.90;99.40
22682;DHT22;11508;50.856;4.380;2023-03-01T10:59:25;4.90;99.50
22682;DHT22;11508;50.856;4.380;2023-03-01T11:02:18;5.00;99.40
22682;DHT22;11508;50.856;4.380;2023-03-01T11:05:01;5.00;98.90
22682;DHT22;11508;50.856;4.380;2023-03-01T11:07:28;5.00;98.70
22682;DHT22;11508;50.856;4.380;2023-03-01T11:09:54;5.10;98.90
22682;DHT22;11508;50.856;4.380;2023-03-01T11:12:20;5.30;98.40
22682;DHT22;11508;50.856;4.380;2023-03-01T11:14:52;5.50;98.30
22682;DHT22;11508;50.856;4.380;2023-03-01T11:17:29;5.90;97.70
22682;DHT22;11508;50.856;4.380;2023-03-01T11:25:18;6.60;95.50
22682;DHT22;11508;50.856;4.380;2023-03-01T11:27:46;7.00;94.30
22682;DHT22;11508;50.856;4.380;2023-03-01T11:35:29;7.80;91.50
22682;DHT22;11508;50.856;4.380;2023-03-01T11:40:42;7.90;91.00
22682;DHT22;11508;50.856;4.380;2023-03-01T11:55:07;9.70;82.80
22682;DHT22;11508;50.856;4.380;2023-03-01T11:57:47;10.00;79.70
22682;DHT22;11508;50.856;4.380;2023-03-01T12:08:50;10.70;76.50
22682;DHT22;11508;50.856;4.380;2023-03-01T12:17:06;11.20;70.20
22682;DHT22;11508;50.856;4.380;2023-03-01T12:19:42;11.60;67.60
22682;DHT22;11508;50.856;4.380;2023-03-01T12:22:35;11.60;68.70
22682;DHT22;11508;50.856;4.380;2023-03-01T12:25:20;11.50;67.00
22682;DHT22;11508;50.856;4.380;2023-03-01T12:30:46;11.60;68.10
22682;DHT22;11508;50.856;4.380;2023-03-01T12:50:04;12.30;66.10
22682;DHT22;11508;50.856;4.380;2023-03-01T12:52:41;12.30;64.80
22682;DHT22;11508;50.856;4.380;2023-03-01T13:01:22;12.10;64.40
22682;DHT22;11508;50.856;4.380;2023-03-01T13:17:57;13.20;60.30
22682;DHT22;11508;50.856;4.380;2023-03-01T13:31:55;13.00;59.30
22682;DHT22;11508;50.856;4.380;2023-03-01T13:34:48;12.90;59.60
22682;DHT22;11508;50.856;4.380;2023-03-01T13:37:20;12.80;59.10
22682;DHT22;11508;50.856;4.380;2023-03-01T13:39:46;12.90;59.10
22682;DHT22;11508;50.856;4.380;2023-03-01T13:42:48;13.00;58.80
22682;DHT22;11508;50.856;4.380;2023-03-01T13:47:47;12.80;58.60
22682;DHT22;11508;50.856;4.380;2023-03-01T13:50:21;12.80;59.60
22682;DHT22;11508;50.856;4.380;2023-03-01T13:52:57;13.30;58.60
22682;DHT22;11508;50.856;4.380;2023-03-01T13:55:36;13.60;58.20
22682;DHT22;11508;50.856;4.380;2023-03-01T13:58:13;13.50;57.70
22682;DHT22;11508;50.856;4.380;2023-03-01T14:00:40;13.10;58.30
22682;DHT22;11508;50.856;4.380;2023-03-01T14:05:35;13.40;58.90
22682;DHT22;11508;50.856;4.380;2023-03-01T14:08:05;13.20;58.50
22682;DHT22;11508;50.856;4.380;2023-03-01T14:10:59;12.40;57.10
22682;DHT22;11508;50.856;4.380;2023-03-01T14:13:40;12.10;58.70
22682;DHT22;11508;50.856;4.380;2023-03-01T14:19:14;12.10;59.90
22682;DHT22;11508;50.856;4.380;2023-03-01T14:21:41;11.70;60.00
22682;DHT22;11508;50.856;4.380;2023-03-01T14:24:20;11.60;60.10
22682;DHT22;11508;50.856;4.380;2023-03-01T14:26:46;11.50;61.50
22682;DHT22;11508;50.856;4.380;2023-03-01T14:29:35;11.60;61.10
22682;DHT22;11508;50.856;4.380;2023-03-01T14:32:26;11.80;60.50
22682;DHT22;11508;50.856;4.380;2023-03-01T14:34:52;11.50;61.20
22682;DHT22;11508;50.856;4.380;2023-03-01T14:37:41;11.20;62.60
22682;DHT22;11508;50.856;4.380;2023-03-01T14:40:24;10.80;63.60
22682;DHT22;11508;50.856;4.380;2023-03-01T14:42:50;10.70;63.70
22682;DHT22;11508;50.856;4.380;2023-03-01T14:45:17;10.70;64.30
22682;DHT22;11508;50.856;4.380;2023-03-01T14:47:43;10.60;64.10
22682;DHT22;11508;50.856;4.380;2023-03-01T14:52:46;10.50;65.30
22682;DHT22;11508;50.856;4.380;2023-03-01T14:55:40;10.10;65.90
22682;DHT22;11508;50.856;4.380;2023-03-01T14:58:06;9.70;67.10
22682;DHT22;11508;50.856;4.380;2023-03-01T15:00:35;9.40;67.10
22682;DHT22;11508;50.856;4.380;2023-03-01T15:05:52;8.30;71.00
22682;DHT22;11508;50.856;4.380;2023-03-01T15:08:24;8.30;71.70
22682;DHT22;11508;50.856;4.380;2023-03-01T15:11:43;8.50;71.10
22682;DHT22;11508;50.856;4.380;2023-03-01T15:13:44;8.70;70.50
22682;DHT22;11508;50.856;4.380;2023-03-01T15:16:15;8.80;69.60
22682;DHT22;11508;50.856;4.380;2023-03-01T15:18:49;8.30;70.30
22682;DHT22;11508;50.856;4.380;2023-03-01T15:21:22;8.10;71.50
22682;DHT22;11508;50.856;4.380;2023-03-01T15:26:50;8.10;72.20
22682;DHT22;11508;50.856;4.380;2023-03-01T15:29:29;8.20;72.20
22682;DHT22;11508;50.856;4.380;2023-03-01T15:32:04;8.40;72.50
22682;DHT22;11508;50.856;4.380;2023-03-01T15:34:35;8.20;72.40
22682;DHT22;11508;50.856;4.380;2023-03-01T15:37:04;8.30;73.00
22682;DHT22;11508;50.856;4.380;2023-03-01T15:39:53;8.30;72.90
22682;DHT22;11508;50.856;4.380;2023-03-01T15:47:47;8.20;73.80
22682;DHT22;11508;50.856;4.380;2023-03-01T15:50:26;8.30;74.10
22682;DHT22;11508;50.856;4.380;2023-03-01T15:52:53;8.30;73.80
22682;DHT22;11508;50.856;4.380;2023-03-01T15:55:25;8.20;73.50
22682;DHT22;11508;50.856;4.380;2023-03-01T15:58:04;8.20;73.80
22682;DHT22;11508;50.856;4.380;2023-03-01T16:00:32;8.20;73.00
22682;DHT22;11508;50.856;4.380;2023-03-01T16:02:58;8.20;72.70
22682;DHT22;11508;50.856;4.380;2023-03-01T16:05:28;8.30;73.60
22682;DHT22;11508;50.856;4.380;2023-03-01T16:07:54;8.20;72.90
22682;DHT22;11508;50.856;4.380;2023-03-01T16:10:20;8.00;73.30
22682;DHT22;11508;50.856;4.380;2023-03-01T16:12:46;7.90;73.70
22682;DHT22;11508;50.856;4.380;2023-03-01T16:15:25;7.80;74.20
22682;DHT22;11508;50.856;4.380;2023-03-01T16:17:51;7.70;74.60
22682;DHT22;11508;50.856;4.380;2023-03-01T16:20:20;7.80;75.00
22682;DHT22;11508;50.856;4.380;2023-03-01T16:22:46;7.80;75.30
22682;DHT22;11508;50.856;4.380;2023-03-01T16:25:14;7.70;75.50
22682;DHT22;11508;50.856;4.380;2023-03-01T16:27:42;7.90;75.80
22682;DHT22;11508;50.856;4.380;2023-03-01T16:30:09;7.90;75.80
22682;DHT22;11508;50.856;4.380;2023-03-01T16:32:43;7.80;75.90
22682;DHT22;11508;50.856;4.380;2023-03-01T16:35:11;7.60;76.60
22682;DHT22;11508;50.856;4.380;2023-03-01T16:37:37;7.50;77.20
22682;DHT22;11508;50.856;4.380;2023-03-01T16:40:05;7.50;77.40
22682;DHT22;11508;50.856;4.380;2023-03-01T16:42:36;7.60;77.60
22682;DHT22;11508;50.856;4.380;2023-03-01T16:45:03;7.70;77.10
22682;DHT22;11508;50.856;4.380;2023-03-01T16:47:29;7.80;77.00
22682;DHT22;11508;50.856;4.380;2023-03-01T16:49:55;7.80;77.10
22682;DHT22;11508;50.856;4.380;2023-03-01T16:52:22;7.90;77.00
22682;DHT22;11508;50.856;4.380;2023-03-01T16:54:48;7.90;76.80
22682;DHT22;11508;50.856;4.380;2023-03-01T16:57:14;7.60;77.50
22682;DHT22;11508;50.856;4.380;2023-03-01T16:59:40;7.70;77.80
22682;DHT22;11508;50.856;4.380;2023-03-01T17:02:08;7.70;77.90
22682;DHT22;11508;50.856;4.380;2023-03-01T17:04:36;7.60;78.50
22682;DHT22;11508;50.856;4.380;2023-03-01T17:07:02;7.60;78.30
22682;DHT22;11508;50.856;4.380;2023-03-01T17:09:28;7.60;78.20
22682;DHT22;11508;50.856;4.380;2023-03-01T17:11:54;7.50;79.00
22682;DHT22;11508;50.856;4.380;2023-03-01T17:14:20;7.30;79.30
22682;DHT22;11508;50.856;4.380;2023-03-01T17:16:46;7.40;79.90
22682;DHT22;11508;50.856;4.380;2023-03-01T17:19:11;7.50;79.30
22682;DHT22;11508;50.856;4.380;2023-03-01T17:21:43;7.60;79.00
22682;DHT22;11508;50.856;4.380;2023-03-01T17:24:09;7.60;78.60
22682;DHT22;11508;50.856;4.380;2023-03-01T17:26:35;7.60;78.80
22682;DHT22;11508;50.856;4.380;2023-03-01T17:29:00;7.40;78.70
22682;DHT22;11508;50.856;4.380;2023-03-01T17:31:26;7.20;79.90
22682;DHT22;11508;50.856;4.380;2023-03-01T17:33:52;7.10;80.10
22682;DHT22;11508;50.856;4.380;2023-03-01T17:36:18;7.10;80.20
22682;DHT22;11508;50.856;4.380;2023-03-01T17:38:44;7.10;79.80
22682;DHT22;11508;50.856;4.380;2023-03-01T17:41:10;7.00;80.10
22682;DHT22;11508;50.856;4.380;2023-03-01T17:43:37;7.10;80.40
22682;DHT22;11508;50.856;4.380;2023-03-01T17:46:04;6.90;80.50
22682;DHT22;11508;50.856;4.380;2023-03-01T17:48:29;6.80;81.00
22682;DHT22;11508;50.856;4.380;2023-03-01T17:50:55;6.90;81.30
22682;DHT22;11508;50.856;4.380;2023-03-01T17:53:21;6.90;81.10
22682;DHT22;11508;50.856;4.380;2023-03-01T17:55:47;7.00;81.00
22682;DHT22;11508;50.856;4.380;2023-03-01T17:58:18;6.90;80.90
22682;DHT22;11508;50.856;4.380;2023-03-01T18:00:48;6.90;81.50
22682;DHT22;11508;50.856;4.380;2023-03-01T18:03:15;7.00;81.40
22682;DHT22;11508;50.856;4.380;2023-03-01T18:05:41;6.90;81.40
22682;DHT22;11508;50.856;4.380;2023-03-01T18:08:06;6.90;81.70
22682;DHT22;11508;50.856;4.380;2023-03-01T18:10:33;6.80;82.50
22682;DHT22;11508;50.856;4.380;2023-03-01T18:13:02;6.80;82.40